sensor_id;sensor_type;location;lat;lon;timestamp;P1;durP1;ratioP1;P2;durP2;ratioP2
73571;SDS011;61854;48.510;-2.770;2023-01-08T00:01:30;13.32;;;2.03;;
73571;SDS011;61854;48.510;-2.770;2023-01-08T00:03:56;15.93;;;2.50;;
73571;SDS011;61854;48.510;-2.770;2023-01-08T00:06:22;15.65;;;2.63;;
73571;SDS011;61854;48.510;-2.770;2023-01-08T00:08:49;8.07;;;2.00;;
73571;SDS011;61854;48.510;-2.770;2023-01-08T00:11:15;8.80;;;1.40;;
73571;SDS011;61854;48.510;-2.770;2023-01-08T00:13:41;13.25;;;1.83;;
73571;SDS011;61854;48.510;-2.770;2023-01-08T00:16:08;13.85;;;1.80;;
73571;SDS011;61854;48.510;-2.770;2023-01-08T00:18:36;11.85;;;1.67;;
73571;SDS011;61854;48.510;-2.770;2023-01-08T00:21:02;12.35;;;1.55;;
73571;SDS011;61854;48.510;-2.770;2023-01-08T00:23:27;10.50;;;1.48;;
73571;SDS011;61854;48.510;-2.770;2023-01-08T00:25:53;10.00;;;1.60;;
73571;SDS011;61854;48.510;-2.770;2023-01-08T00:28:19;11.93;;;1.88;;
73571;SDS011;61854;48.510;-2.770;2023-01-08T00:30:45;11.57;;;2.10;;
73571;SDS011;61854;48.510;-2.770;2023-01-08T00:33:11;11.07;;;1.60;;
73571;SDS011;61854;48.510;-2.770;2023-01-08T00:35:37;14.13;;;2.33;;
73571;SDS011;61854;48.510;-2.770;2023-01-08T00:38:03;14.75;;;2.25;;
73571;SDS011;61854;48.510;-2.770;2023-01-08T00:40:29;12.52;;;2.03;;
73571;SDS011;61854;48.510;-2.770;2023-01-08T00:42:54;11.68;;;2.00;;
73571;SDS011;61854;48.510;-2.770;2023-01-08T00:45:20;14.40;;;1.60;;
73571;SDS011;61854;48.510;-2.770;2023-01-08T00:47:45;15.88;;;2.10;;
73571;SDS011;61854;48.510;-2.770;2023-01-08T00:50:11;16.13;;;2.22;;
73571;SDS011;61854;48.510;-2.770;2023-01-08T00:52:37;8.98;;;1.38;;
73571;SDS011;61854;48.510;-2.770;2023-01-08T00:55:03;7.95;;;1.45;;
73571;SDS011;61854;48.510;-2.770;2023-01-08T00:57:35;12.02;;;1.70;;
73571;SDS011;61854;48.510;-2.770;2023-01-08T01:00:03;10.75;;;1.75;;
73571;SDS011;61854;48.510;-2.770;2023-01-08T01:02:33;9.88;;;1.08;;
73571;SDS011;61854;48.510;-2.770;2023-01-08T01:04:59;10.77;;;1.92;;
73571;SDS011;61854;48.510;-2.770;2023-01-08T01:07:25;9.98;;;1.60;;
73571;SDS011;61854;48.510;-2.770;2023-01-08T01:09:51;10.35;;;1.92;;
73571;SDS011;61854;48.510;-2.770;2023-01-08T01:12:16;14.00;;;2.00;;
73571;SDS011;61854;48.510;-2.770;2023-01-08T01:14:42;9.95;;;1.65;;
73571;SDS011;61854;48.510;-2.770;2023-01-08T01:17:09;10.23;;;1.92;;
73571;SDS011;61854;48.510;-2.770;2023-01-08T01:19:36;8.82;;;1.40;;
73571;SDS011;61854;48.510;-2.770;2023-01-08T01:22:01;12.05;;;1.63;;
73571;SDS011;61854;48.510;-2.770;2023-01-08T01:24:27;7.00;;;1.02;;
73571;SDS011;61854;48.510;-2.770;2023-01-08T01:26:53;9.20;;;1.65;;
73571;SDS011;61854;48.510;-2.770;2023-01-08T01:29:21;11.35;;;1.35;;
73571;SDS011;61854;48.510;-2.770;2023-01-08T01:31:46;14.95;;;1.92;;
73571;SDS011;61854;48.510;-2.770;2023-01-08T01:34:12;14.15;;;1.85;;
73571;SDS011;61854;48.510;-2.770;2023-01-08T01:36:38;14.55;;;2.10;;
73571;SDS011;61854;48.510;-2.770;2023-01-08T01:39:04;12.93;;;1.88;;
73571;SDS011;61854;48.510;-2.770;2023-01-08T01:41:31;12.70;;;1.88;;
73571;SDS011;61854;48.510;-2.770;2023-01-08T01:44:32;9.63;;;1.27;;
73571;SDS011;61854;48.510;-2.770;2023-01-08T01:47:02;11.27;;;1.45;;
73571;SDS011;61854;48.510;-2.770;2023-01-08T01:52:47;16.80;;;2.00;;
73571;SDS011;61854;48.510;-2.770;2023-01-08T01:55:14;9.73;;;1.48;;
73571;SDS011;61854;48.510;-2.770;2023-01-08T01:57:45;14.90;;;2.13;;
73571;SDS011;61854;48.510;-2.770;2023-01-08T02:00:17;10.60;;;1.50;;
73571;SDS011;61854;48.510;-2.770;2023-01-08T02:02:43;10.18;;;1.42;;
73571;SDS011;61854;48.510;-2.770;2023-01-08T02:05:09;14.57;;;2.10;;
73571;SDS011;61854;48.510;-2.770;2023-01-08T02:07:43;12.32;;;1.70;;
73571;SDS011;61854;48.510;-2.770;2023-01-08T02:10:16;10.23;;;1.40;;
73571;SDS011;61854;48.510;-2.770;2023-01-08T02:12:53;10.07;;;1.33;;
73571;SDS011;61854;48.510;-2.770;2023-01-08T02:20:40;12.35;;;2.35;;
73571;SDS011;61854;48.510;-2.770;2023-01-08T02:23:15;15.15;;;2.03;;
73571;SDS011;61854;48.510;-2.770;2023-01-08T02:33:40;12.30;;;1.80;;
73571;SDS011;61854;48.510;-2.770;2023-01-08T02:36:25;10.73;;;1.85;;
73571;SDS011;61854;48.510;-2.770;2023-01-08T02:44:19;10.88;;;1.55;;
73571;SDS011;61854;48.510;-2.770;2023-01-08T02:47:00;14.80;;;2.33;;
73571;SDS011;61854;48.510;-2.770;2023-01-08T02:49:30;16.50;;;1.75;;
73571;SDS011;61854;48.510;-2.770;2023-01-08T02:52:00;20.02;;;2.38;;
73571;SDS011;61854;48.510;-2.770;2023-01-08T02:54:28;11.55;;;1.52;;
73571;SDS011;61854;48.510;-2.770;2023-01-08T02:57:05;17.63;;;2.45;;
73571;SDS011;61854;48.510;-2.770;2023-01-08T02:59:34;18.65;;;2.28;;
73571;SDS011;61854;48.510;-2.770;2023-01-08T03:02:03;15.55;;;2.10;;
73571;SDS011;61854;48.510;-2.770;2023-01-08T03:04:30;18.23;;;2.00;;
73571;SDS011;61854;48.510;-2.770;2023-01-08T03:07:01;16.30;;;2.70;;
73571;SDS011;61854;48.510;-2.770;2023-01-08T03:09:28;17.48;;;2.20;;
73571;SDS011;61854;48.510;-2.770;2023-01-08T03:12:10;10.10;;;1.40;;
73571;SDS011;61854;48.510;-2.770;2023-01-08T03:19:48;14.32;;;2.20;;
73571;SDS011;61854;48.510;-2.770;2023-01-08T03:22:18;14.80;;;2.35;;
73571;SDS011;61854;48.510;-2.770;2023-01-08T03:24:45;13.10;;;1.70;;
73571;SDS011;61854;48.510;-2.770;2023-01-08T03:27:16;16.00;;;1.75;;
73571;SDS011;61854;48.510;-2.770;2023-01-08T03:29:45;17.52;;;3.08;;
73571;SDS011;61854;48.510;-2.770;2023-01-08T03:32:15;13.85;;;2.00;;
73571;SDS011;61854;48.510;-2.770;2023-01-08T03:34:42;15.23;;;2.60;;
73571;SDS011;61854;48.510;-2.770;2023-01-08T03:39:45;15.95;;;2.35;;
73571;SDS011;61854;48.510;-2.770;2023-01-08T03:42:32;19.75;;;2.63;;
73571;SDS011;61854;48.510;-2.770;2023-01-08T03:44:58;16.58;;;2.63;;
73571;SDS011;61854;48.510;-2.770;2023-01-08T03:47:25;23.42;;;2.53;;
73571;SDS011;61854;48.510;-2.770;2023-01-08T03:49:54;12.23;;;1.90;;
73571;SDS011;61854;48.510;-2.770;2023-01-08T03:52:25;19.45;;;2.50;;
73571;SDS011;61854;48.510;-2.770;2023-01-08T03:54:53;14.70;;;2.67;;
73571;SDS011;61854;48.510;-2.770;2023-01-08T03:57:18;15.30;;;2.00;;
73571;SDS011;61854;48.510;-2.770;2023-01-08T03:59:44;24.77;;;2.55;;
73571;SDS011;61854;48.510;-2.770;2023-01-08T04:02:10;17.98;;;2.10;;
73571;SDS011;61854;48.510;-2.770;2023-01-08T04:04:36;16.02;;;2.30;;
73571;SDS011;61854;48.510;-2.770;2023-01-08T04:07:02;16.45;;;2.08;;
73571;SDS011;61854;48.510;-2.770;2023-01-08T04:09:28;15.20;;;1.92;;
73571;SDS011;61854;48.510;-2.770;2023-01-08T04:11:53;14.07;;;1.60;;
73571;SDS011;61854;48.510;-2.770;2023-01-08T04:14:19;22.33;;;2.70;;
73571;SDS011;61854;48.510;-2.770;2023-01-08T04:16:44;22.55;;;2.83;;
73571;SDS011;61854;48.510;-2.770;2023-01-08T04:19:10;19.92;;;2.78;;
73571;SDS011;61854;48.510;-2.770;2023-01-08T04:21:37;17.35;;;2.40;;
73571;SDS011;61854;48.510;-2.770;2023-01-08T04:24:03;17.52;;;1.85;;
73571;SDS011;61854;48.510;-2.770;2023-01-08T04:26:29;18.38;;;2.40;;
73571;SDS011;61854;48.510;-2.770;2023-01-08T04:28:55;18.88;;;2.45;;
73571;SDS011;61854;48.510;-2.770;2023-01-08T04:31:20;21.23;;;2.92;;
73571;SDS011;61854;48.510;-2.770;2023-01-08T04:33:46;11.65;;;1.92;;
73571;SDS011;61854;48.510;-2.770;2023-01-08T04:36:11;18.30;;;2.20;;
73571;SDS011;61854;48.510;-2.770;2023-01-08T04:38:37;16.27;;;1.75;;
73571;SDS011;61854;48.510;-2.770;2023-01-08T04:41:03;18.95;;;2.60;;
73571;SDS011;61854;48.510;-2.770;2023-01-08T04:43:29;15.63;;;2.25;;
73571;SDS011;61854;48.510;-2.770;2023-01-08T04:45:56;16.30;;;2.92;;
73571;SDS011;61854;48.510;-2.770;2023-01-08T04:48:23;17.77;;;2.20;;
73571;SDS011;61854;48.510;-2.770;2023-01-08T04:50:48;18.23;;;2.40;;
73571;SDS011;61854;48.510;-2.770;2023-01-08T04:53:15;11.88;;;1.88;;
73571;SDS011;61854;48.510;-2.770;2023-01-08T04:55:41;11.50;;;1.83;;
73571;SDS011;61854;48.510;-2.770;2023-01-08T04:58:06;11.38;;;1.30;;
73571;SDS011;61854;48.510;-2.770;2023-01-08T05:00:32;16.77;;;1.90;;
73571;SDS011;61854;48.510;-2.770;2023-01-08T05:02:58;10.88;;;1.60;;
73571;SDS011;61854;48.510;-2.770;2023-01-08T05:05:24;17.67;;;2.25;;
73571;SDS011;61854;48.510;-2.770;2023-01-08T05:07:49;19.05;;;2.55;;
73571;SDS011;61854;48.510;-2.770;2023-01-08T05:10:15;17.38;;;2.40;;
73571;SDS011;61854;48.510;-2.770;2023-01-08T05:12:40;12.02;;;2.20;;
73571;SDS011;61854;48.510;-2.770;2023-01-08T05:15:06;18.48;;;2.75;;
73571;SDS011;61854;48.510;-2.770;2023-01-08T05:17:33;20.80;;;2.63;;
73571;SDS011;61854;48.510;-2.770;2023-01-08T05:19:58;17.70;;;2.88;;
73571;SDS011;61854;48.510;-2.770;2023-01-08T05:22:24;19.60;;;2.72;;
73571;SDS011;61854;48.510;-2.770;2023-01-08T05:24:50;13.10;;;1.85;;
73571;SDS011;61854;48.510;-2.770;2023-01-08T05:27:15;16.55;;;2.33;;
73571;SDS011;61854;48.510;-2.770;2023-01-08T05:29:41;19.50;;;2.40;;
73571;SDS011;61854;48.510;-2.770;2023-01-08T05:32:13;21.15;;;2.63;;
73571;SDS011;61854;48.510;-2.770;2023-01-08T05:34:40;14.35;;;1.85;;
73571;SDS011;61854;48.510;-2.770;2023-01-08T05:37:05;19.27;;;2.88;;
73571;SDS011;61854;48.510;-2.770;2023-01-08T05:39:31;18.05;;;2.80;;
73571;SDS011;61854;48.510;-2.770;2023-01-08T05:41:57;20.83;;;3.00;;
73571;SDS011;61854;48.510;-2.770;2023-01-08T05:44:22;32.65;;;3.75;;
73571;SDS011;61854;48.510;-2.770;2023-01-08T05:46:48;25.75;;;3.03;;
73571;SDS011;61854;48.510;-2.770;2023-01-08T05:49:14;23.20;;;2.78;;
73571;SDS011;61854;48.510;-2.770;2023-01-08T05:51:39;25.00;;;3.22;;
73571;SDS011;61854;48.510;-2.770;2023-01-08T05:54:05;19.73;;;2.95;;
73571;SDS011;61854;48.510;-2.770;2023-01-08T05:56:30;19.33;;;2.67;;
73571;SDS011;61854;48.510;-2.770;2023-01-08T05:58:56;19.00;;;2.47;;
73571;SDS011;61854;48.510;-2.770;2023-01-08T06:01:22;21.25;;;3.08;;
73571;SDS011;61854;48.510;-2.770;2023-01-08T06:03:47;22.08;;;2.80;;
73571;SDS011;61854;48.510;-2.770;2023-01-08T06:06:13;22.95;;;3.63;;
73571;SDS011;61854;48.510;-2.770;2023-01-08T06:08:40;21.95;;;3.45;;
73571;SDS011;61854;48.510;-2.770;2023-01-08T06:11:06;21.02;;;3.25;;
73571;SDS011;61854;48.510;-2.770;2023-01-08T06:13:33;23.95;;;3.58;;
73571;SDS011;61854;48.510;-2.770;2023-01-08T06:18:28;19.52;;;2.20;;
73571;SDS011;61854;48.510;-2.770;2023-01-08T06:20:53;19.92;;;2.42;;
73571;SDS011;61854;48.510;-2.770;2023-01-08T06:23:19;16.70;;;2.70;;
73571;SDS011;61854;48.510;-2.770;2023-01-08T06:25:50;18.83;;;2.15;;
73571;SDS011;61854;48.510;-2.770;2023-01-08T06:28:20;20.92;;;2.53;;
73571;SDS011;61854;48.510;-2.770;2023-01-08T06:30:46;17.20;;;2.33;;
73571;SDS011;61854;48.510;-2.770;2023-01-08T06:33:12;17.60;;;2.28;;
73571;SDS011;61854;48.510;-2.770;2023-01-08T06:35:38;17.88;;;2.28;;
73571;SDS011;61854;48.510;-2.770;2023-01-08T06:38:03;19.48;;;2.90;;
73571;SDS011;61854;48.510;-2.770;2023-01-08T06:40:29;21.77;;;2.83;;
73571;SDS011;61854;48.510;-2.770;2023-01-08T06:42:54;24.13;;;3.45;;
73571;SDS011;61854;48.510;-2.770;2023-01-08T06:45:20;17.63;;;2.40;;
73571;SDS011;61854;48.510;-2.770;2023-01-08T06:47:46;18.20;;;2.50;;
73571;SDS011;61854;48.510;-2.770;2023-01-08T06:50:11;20.67;;;3.20;;
73571;SDS011;61854;48.510;-2.770;2023-01-08T06:52:37;18.23;;;2.92;;
73571;SDS011;61854;48.510;-2.770;2023-01-08T06:55:03;12.20;;;2.10;;
73571;SDS011;61854;48.510;-2.770;2023-01-08T06:57:30;22.08;;;2.90;;
73571;SDS011;61854;48.510;-2.770;2023-01-08T06:59:56;17.27;;;3.28;;
73571;SDS011;61854;48.510;-2.770;2023-01-08T07:02:21;16.83;;;2.50;;
73571;SDS011;61854;48.510;-2.770;2023-01-08T07:04:47;14.55;;;3.00;;
73571;SDS011;61854;48.510;-2.770;2023-01-08T07:07:13;19.17;;;2.50;;
73571;SDS011;61854;48.510;-2.770;2023-01-08T07:09:42;16.02;;;2.40;;
73571;SDS011;61854;48.510;-2.770;2023-01-08T07:12:11;9.75;;;1.70;;
73571;SDS011;61854;48.510;-2.770;2023-01-08T07:14:38;15.13;;;2.42;;
73571;SDS011;61854;48.510;-2.770;2023-01-08T07:17:04;15.95;;;2.58;;
73571;SDS011;61854;48.510;-2.770;2023-01-08T07:19:33;20.30;;;2.70;;
73571;SDS011;61854;48.510;-2.770;2023-01-08T07:21:58;22.75;;;2.60;;
73571;SDS011;61854;48.510;-2.770;2023-01-08T07:24:24;19.00;;;2.72;;
73571;SDS011;61854;48.510;-2.770;2023-01-08T07:26:50;14.90;;;2.85;;
73571;SDS011;61854;48.510;-2.770;2023-01-08T07:29:16;22.35;;;2.60;;
73571;SDS011;61854;48.510;-2.770;2023-01-08T07:31:41;19.67;;;2.33;;
73571;SDS011;61854;48.510;-2.770;2023-01-08T07:34:07;27.45;;;2.92;;
73571;SDS011;61854;48.510;-2.770;2023-01-08T07:36:33;18.25;;;2.60;;
73571;SDS011;61854;48.510;-2.770;2023-01-08T07:38:58;26.55;;;3.03;;
73571;SDS011;61854;48.510;-2.770;2023-01-08T07:41:25;21.48;;;2.60;;
73571;SDS011;61854;48.510;-2.770;2023-01-08T07:43:50;18.85;;;2.55;;
73571;SDS011;61854;48.510;-2.770;2023-01-08T07:46:16;21.90;;;3.30;;
73571;SDS011;61854;48.510;-2.770;2023-01-08T07:48:42;20.98;;;2.63;;
73571;SDS011;61854;48.510;-2.770;2023-01-08T07:51:07;20.98;;;3.20;;
73571;SDS011;61854;48.510;-2.770;2023-01-08T07:53:34;24.75;;;4.18;;
73571;SDS011;61854;48.510;-2.770;2023-01-08T07:56:01;21.92;;;2.90;;
73571;SDS011;61854;48.510;-2.770;2023-01-08T07:58:29;17.17;;;2.78;;
73571;SDS011;61854;48.510;-2.770;2023-01-08T08:00:55;20.52;;;2.50;;
73571;SDS011;61854;48.510;-2.770;2023-01-08T08:03:21;25.10;;;3.35;;
73571;SDS011;61854;48.510;-2.770;2023-01-08T08:05:47;25.05;;;3.08;;
73571;SDS011;61854;48.510;-2.770;2023-01-08T08:08:13;20.02;;;2.65;;
73571;SDS011;61854;48.510;-2.770;2023-01-08T08:10:39;21.42;;;2.88;;
73571;SDS011;61854;48.510;-2.770;2023-01-08T08:13:05;18.77;;;2.70;;
73571;SDS011;61854;48.510;-2.770;2023-01-08T08:15:32;23.83;;;3.33;;
73571;SDS011;61854;48.510;-2.770;2023-01-08T08:17:58;29.40;;;3.20;;
73571;SDS011;61854;48.510;-2.770;2023-01-08T08:20:24;31.88;;;3.55;;
73571;SDS011;61854;48.510;-2.770;2023-01-08T08:22:50;21.15;;;3.08;;
73571;SDS011;61854;48.510;-2.770;2023-01-08T08:25:15;33.15;;;3.95;;
73571;SDS011;61854;48.510;-2.770;2023-01-08T08:27:42;20.38;;;2.75;;
73571;SDS011;61854;48.510;-2.770;2023-01-08T08:30:08;27.85;;;3.20;;
73571;SDS011;61854;48.510;-2.770;2023-01-08T08:32:35;20.65;;;3.70;;
73571;SDS011;61854;48.510;-2.770;2023-01-08T08:35:01;25.88;;;3.97;;
73571;SDS011;61854;48.510;-2.770;2023-01-08T08:37:28;23.90;;;3.53;;
73571;SDS011;61854;48.510;-2.770;2023-01-08T08:39:54;25.67;;;3.55;;
73571;SDS011;61854;48.510;-2.770;2023-01-08T08:42:19;20.20;;;3.00;;
73571;SDS011;61854;48.510;-2.770;2023-01-08T08:44:45;17.92;;;2.50;;
73571;SDS011;61854;48.510;-2.770;2023-01-08T08:47:11;13.27;;;2.42;;
73571;SDS011;61854;48.510;-2.770;2023-01-08T08:49:37;25.30;;;4.03;;
73571;SDS011;61854;48.510;-2.770;2023-01-08T08:52:03;18.05;;;2.58;;
73571;SDS011;61854;48.510;-2.770;2023-01-08T08:54:29;24.13;;;3.03;;
73571;SDS011;61854;48.510;-2.770;2023-01-08T08:56:54;19.88;;;2.90;;
73571;SDS011;61854;48.510;-2.770;2023-01-08T08:59:20;14.93;;;2.78;;
73571;SDS011;61854;48.510;-2.770;2023-01-08T09:01:45;24.60;;;2.60;;
73571;SDS011;61854;48.510;-2.770;2023-01-08T09:04:11;20.98;;;3.10;;
73571;SDS011;61854;48.510;-2.770;2023-01-08T09:06:37;16.02;;;2.83;;
73571;SDS011;61854;48.510;-2.770;2023-01-08T09:09:02;19.65;;;2.63;;
73571;SDS011;61854;48.510;-2.770;2023-01-08T09:11:28;18.60;;;3.20;;
73571;SDS011;61854;48.510;-2.770;2023-01-08T09:13:54;23.08;;;3.58;;
73571;SDS011;61854;48.510;-2.770;2023-01-08T09:16:20;23.45;;;3.40;;
73571;SDS011;61854;48.510;-2.770;2023-01-08T09:18:45;28.20;;;3.72;;
73571;SDS011;61854;48.510;-2.770;2023-01-08T09:21:13;23.55;;;3.20;;
73571;SDS011;61854;48.510;-2.770;2023-01-08T09:23:39;16.27;;;2.95;;
73571;SDS011;61854;48.510;-2.770;2023-01-08T09:26:05;24.20;;;3.20;;
73571;SDS011;61854;48.510;-2.770;2023-01-08T09:28:31;16.75;;;2.55;;
73571;SDS011;61854;48.510;-2.770;2023-01-08T09:31:00;28.10;;;3.38;;
73571;SDS011;61854;48.510;-2.770;2023-01-08T09:33:27;19.58;;;2.83;;
73571;SDS011;61854;48.510;-2.770;2023-01-08T09:35:54;29.15;;;3.05;;
73571;SDS011;61854;48.510;-2.770;2023-01-08T09:38:19;27.70;;;3.58;;
73571;SDS011;61854;48.510;-2.770;2023-01-08T09:43:19;23.83;;;3.58;;
73571;SDS011;61854;48.510;-2.770;2023-01-08T09:45:48;27.50;;;4.28;;
73571;SDS011;61854;48.510;-2.770;2023-01-08T09:48:17;19.77;;;3.08;;
73571;SDS011;61854;48.510;-2.770;2023-01-08T09:50:47;21.80;;;3.80;;
73571;SDS011;61854;48.510;-2.770;2023-01-08T09:53:13;20.50;;;3.42;;
73571;SDS011;61854;48.510;-2.770;2023-01-08T09:55:40;19.92;;;2.85;;
73571;SDS011;61854;48.510;-2.770;2023-01-08T09:58:18;13.98;;;2.55;;
73571;SDS011;61854;48.510;-2.770;2023-01-08T10:00:46;15.18;;;3.13;;
73571;SDS011;61854;48.510;-2.770;2023-01-08T10:03:15;13.85;;;2.40;;
73571;SDS011;61854;48.510;-2.770;2023-01-08T10:05:40;12.88;;;2.10;;
73571;SDS011;61854;48.510;-2.770;2023-01-08T10:08:10;16.40;;;2.60;;
73571;SDS011;61854;48.510;-2.770;2023-01-08T10:10:38;14.00;;;2.40;;
73571;SDS011;61854;48.510;-2.770;2023-01-08T10:13:05;14.73;;;2.45;;
73571;SDS011;61854;48.510;-2.770;2023-01-08T10:15:31;13.57;;;2.17;;
73571;SDS011;61854;48.510;-2.770;2023-01-08T10:18:03;10.55;;;2.30;;
73571;SDS011;61854;48.510;-2.770;2023-01-08T10:20:31;13.15;;;2.17;;
73571;SDS011;61854;48.510;-2.770;2023-01-08T10:23:17;15.98;;;2.28;;
73571;SDS011;61854;48.510;-2.770;2023-01-08T10:25:47;15.73;;;2.72;;
73571;SDS011;61854;48.510;-2.770;2023-01-08T10:28:30;14.90;;;2.55;;
73571;SDS011;61854;48.510;-2.770;2023-01-08T10:31:04;14.50;;;2.40;;
73571;SDS011;61854;48.510;-2.770;2023-01-08T10:36:09;12.70;;;1.80;;
73571;SDS011;61854;48.510;-2.770;2023-01-08T10:38:55;14.40;;;2.20;;
73571;SDS011;61854;48.510;-2.770;2023-01-08T10:41:24;11.82;;;1.95;;
73571;SDS011;61854;48.510;-2.770;2023-01-08T10:46:31;8.88;;;1.50;;
73571;SDS011;61854;48.510;-2.770;2023-01-08T10:49:05;11.23;;;2.00;;
73571;SDS011;61854;48.510;-2.770;2023-01-08T10:51:31;11.82;;;2.40;;
73571;SDS011;61854;48.510;-2.770;2023-01-08T10:53:58;15.40;;;1.92;;
73571;SDS011;61854;48.510;-2.770;2023-01-08T10:56:39;10.73;;;2.08;;
73571;SDS011;61854;48.510;-2.770;2023-01-08T10:59:19;11.52;;;2.28;;
73571;SDS011;61854;48.510;-2.770;2023-01-08T11:01:47;10.85;;;1.70;;
73571;SDS011;61854;48.510;-2.770;2023-01-08T11:04:15;11.40;;;2.10;;
73571;SDS011;61854;48.510;-2.770;2023-01-08T11:07:01;11.50;;;1.77;;
73571;SDS011;61854;48.510;-2.770;2023-01-08T11:09:32;9.77;;;1.75;;
73571;SDS011;61854;48.510;-2.770;2023-01-08T11:12:03;14.48;;;2.00;;
73571;SDS011;61854;48.510;-2.770;2023-01-08T11:14:29;11.75;;;1.58;;
73571;SDS011;61854;48.510;-2.770;2023-01-08T11:16:59;9.13;;;1.50;;
73571;SDS011;61854;48.510;-2.770;2023-01-08T11:19:29;7.73;;;1.50;;
73571;SDS011;61854;48.510;-2.770;2023-01-08T11:21:57;12.93;;;1.63;;
73571;SDS011;61854;48.510;-2.770;2023-01-08T11:24:30;13.98;;;2.42;;
73571;SDS011;61854;48.510;-2.770;2023-01-08T11:35:11;13.18;;;2.03;;
73571;SDS011;61854;48.510;-2.770;2023-01-08T11:37:49;14.90;;;2.63;;
73571;SDS011;61854;48.510;-2.770;2023-01-08T11:40:21;17.05;;;2.33;;
73571;SDS011;61854;48.510;-2.770;2023-01-08T12:03:10;19.75;;;3.40;;
73571;SDS011;61854;48.510;-2.770;2023-01-08T12:08:04;11.38;;;2.05;;
73571;SDS011;61854;48.510;-2.770;2023-01-08T12:27:30;7.70;;;1.15;;
73571;SDS011;61854;48.510;-2.770;2023-01-08T12:30:25;6.80;;;1.30;;
73571;SDS011;61854;48.510;-2.770;2023-01-08T12:35:46;9.60;;;1.33;;
73571;SDS011;61854;48.510;-2.770;2023-01-08T12:38:29;6.82;;;0.98;;
73571;SDS011;61854;48.510;-2.770;2023-01-08T12:41:09;7.75;;;1.17;;
73571;SDS011;61854;48.510;-2.770;2023-01-08T12:46:32;11.63;;;2.05;;
73571;SDS011;61854;48.510;-2.770;2023-01-08T12:49:00;6.78;;;1.67;;
73571;SDS011;61854;48.510;-2.770;2023-01-08T12:54:14;11.95;;;2.03;;
73571;SDS011;61854;48.510;-2.770;2023-01-08T12:59:33;9.15;;;1.50;;
73571;SDS011;61854;48.510;-2.770;2023-01-08T13:05:11;9.82;;;1.67;;
73571;SDS011;61854;48.510;-2.770;2023-01-08T13:07:44;7.93;;;1.20;;
73571;SDS011;61854;48.510;-2.770;2023-01-08T13:12:55;11.80;;;1.70;;
73571;SDS011;61854;48.510;-2.770;2023-01-08T13:15:24;11.23;;;1.80;;
73571;SDS011;61854;48.510;-2.770;2023-01-08T13:17:52;13.30;;;2.10;;
73571;SDS011;61854;48.510;-2.770;2023-01-08T13:22:50;7.65;;;1.52;;
73571;SDS011;61854;48.510;-2.770;2023-01-08T13:27:44;7.60;;;1.42;;
73571;SDS011;61854;48.510;-2.770;2023-01-08T13:33:00;5.47;;;1.00;;
73571;SDS011;61854;48.510;-2.770;2023-01-08T13:35:27;5.18;;;0.90;;
73571;SDS011;61854;48.510;-2.770;2023-01-08T13:38:11;6.20;;;0.90;;
73571;SDS011;61854;48.510;-2.770;2023-01-08T13:43:12;7.20;;;1.60;;
73571;SDS011;61854;48.510;-2.770;2023-01-08T13:45:39;8.55;;;1.52;;
73571;SDS011;61854;48.510;-2.770;2023-01-08T13:48:18;6.25;;;1.83;;
73571;SDS011;61854;48.510;-2.770;2023-01-08T13:50:49;6.30;;;1.27;;
73571;SDS011;61854;48.510;-2.770;2023-01-08T13:53:15;2.45;;;0.63;;
73571;SDS011;61854;48.510;-2.770;2023-01-08T13:55:45;5.03;;;0.88;;
73571;SDS011;61854;48.510;-2.770;2023-01-08T13:58:17;4.03;;;0.60;;
73571;SDS011;61854;48.510;-2.770;2023-01-08T14:00:48;4.93;;;0.80;;
73571;SDS011;61854;48.510;-2.770;2023-01-08T14:06:15;3.80;;;0.70;;
73571;SDS011;61854;48.510;-2.770;2023-01-08T14:11:26;3.38;;;0.60;;
73571;SDS011;61854;48.510;-2.770;2023-01-08T14:13:52;2.72;;;0.75;;
73571;SDS011;61854;48.510;-2.770;2023-01-08T14:16:18;3.08;;;0.63;;
73571;SDS011;61854;48.510;-2.770;2023-01-08T14:18:45;2.28;;;0.80;;
73571;SDS011;61854;48.510;-2.770;2023-01-08T14:21:12;3.80;;;0.98;;
73571;SDS011;61854;48.510;-2.770;2023-01-08T14:23:39;2.95;;;1.10;;
73571;SDS011;61854;48.510;-2.770;2023-01-08T14:29:12;2.83;;;0.95;;
73571;SDS011;61854;48.510;-2.770;2023-01-08T14:31:45;4.65;;;1.20;;
73571;SDS011;61854;48.510;-2.770;2023-01-08T14:34:19;1.80;;;0.70;;
73571;SDS011;61854;48.510;-2.770;2023-01-08T14:36:46;2.73;;;0.93;;
73571;SDS011;61854;48.510;-2.770;2023-01-08T14:39:21;3.72;;;1.00;;
73571;SDS011;61854;48.510;-2.770;2023-01-08T14:41:59;3.58;;;1.20;;
73571;SDS011;61854;48.510;-2.770;2023-01-08T14:44:58;5.18;;;1.20;;
73571;SDS011;61854;48.510;-2.770;2023-01-08T14:47:33;4.78;;;1.10;;
73571;SDS011;61854;48.510;-2.770;2023-01-08T14:50:04;3.25;;;0.95;;
73571;SDS011;61854;48.510;-2.770;2023-01-08T14:52:31;2.13;;;0.60;;
73571;SDS011;61854;48.510;-2.770;2023-01-08T14:54:58;2.55;;;0.80;;
73571;SDS011;61854;48.510;-2.770;2023-01-08T14:57:27;4.00;;;0.90;;
73571;SDS011;61854;48.510;-2.770;2023-01-08T14:59:54;3.55;;;0.77;;
73571;SDS011;61854;48.510;-2.770;2023-01-08T15:02:24;3.70;;;1.15;;
73571;SDS011;61854;48.510;-2.770;2023-01-08T15:05:23;3.85;;;1.15;;
73571;SDS011;61854;48.510;-2.770;2023-01-08T15:08:02;3.88;;;0.98;;
73571;SDS011;61854;48.510;-2.770;2023-01-08T15:10:55;3.28;;;1.10;;
73571;SDS011;61854;48.510;-2.770;2023-01-08T15:13:29;4.07;;;1.35;;
73571;SDS011;61854;48.510;-2.770;2023-01-08T15:16:09;6.07;;;1.48;;
73571;SDS011;61854;48.510;-2.770;2023-01-08T15:18:59;4.72;;;1.20;;
73571;SDS011;61854;48.510;-2.770;2023-01-08T15:21:28;8.60;;;1.52;;
73571;SDS011;61854;48.510;-2.770;2023-01-08T15:23:55;5.85;;;1.33;;
73571;SDS011;61854;48.510;-2.770;2023-01-08T15:26:22;8.25;;;1.63;;
73571;SDS011;61854;48.510;-2.770;2023-01-08T15:31:25;9.35;;;1.40;;
73571;SDS011;61854;48.510;-2.770;2023-01-08T15:33:52;6.60;;;1.25;;
73571;SDS011;61854;48.510;-2.770;2023-01-08T15:36:18;7.70;;;1.50;;
73571;SDS011;61854;48.510;-2.770;2023-01-08T15:38:45;7.55;;;1.40;;
73571;SDS011;61854;48.510;-2.770;2023-01-08T15:41:12;9.75;;;1.55;;
73571;SDS011;61854;48.510;-2.770;2023-01-08T15:44:01;7.60;;;1.50;;
73571;SDS011;61854;48.510;-2.770;2023-01-08T15:46:27;8.77;;;1.90;;
73571;SDS011;61854;48.510;-2.770;2023-01-08T15:48:52;10.15;;;1.50;;
73571;SDS011;61854;48.510;-2.770;2023-01-08T15:51:18;9.48;;;1.52;;
73571;SDS011;61854;48.510;-2.770;2023-01-08T15:53:44;8.40;;;1.48;;
73571;SDS011;61854;48.510;-2.770;2023-01-08T15:56:09;10.35;;;1.52;;
73571;SDS011;61854;48.510;-2.770;2023-01-08T15:58:35;12.93;;;1.75;;
73571;SDS011;61854;48.510;-2.770;2023-01-08T16:01:01;8.50;;;1.27;;
73571;SDS011;61854;48.510;-2.770;2023-01-08T16:03:26;11.20;;;2.10;;
73571;SDS011;61854;48.510;-2.770;2023-01-08T16:05:54;11.77;;;1.77;;
73571;SDS011;61854;48.510;-2.770;2023-01-08T16:08:20;13.07;;;1.85;;
73571;SDS011;61854;48.510;-2.770;2023-01-08T16:10:50;16.90;;;2.53;;
73571;SDS011;61854;48.510;-2.770;2023-01-08T16:13:16;20.30;;;2.70;;
73571;SDS011;61854;48.510;-2.770;2023-01-08T16:15:42;14.38;;;2.60;;
73571;SDS011;61854;48.510;-2.770;2023-01-08T16:18:08;17.30;;;2.70;;
73571;SDS011;61854;48.510;-2.770;2023-01-08T16:20:34;10.13;;;1.60;;
73571;SDS011;61854;48.510;-2.770;2023-01-08T16:22:59;11.18;;;2.08;;
73571;SDS011;61854;48.510;-2.770;2023-01-08T16:25:25;12.30;;;2.28;;
73571;SDS011;61854;48.510;-2.770;2023-01-08T16:27:51;16.92;;;2.15;;
73571;SDS011;61854;48.510;-2.770;2023-01-08T16:30:17;13.60;;;2.20;;
73571;SDS011;61854;48.510;-2.770;2023-01-08T16:32:43;12.00;;;2.80;;
73571;SDS011;61854;48.510;-2.770;2023-01-08T16:35:10;9.18;;;1.80;;
73571;SDS011;61854;48.510;-2.770;2023-01-08T16:37:36;13.88;;;2.60;;